createdAt,value
2022-09-16T00:02:21.425Z,14.33
2022-09-16T00:04:53.823Z,11.00
2022-09-16T00:07:25.536Z,9.83
2022-09-16T00:09:57.199Z,9.53
2022-09-16T00:12:28.880Z,9.43
2022-09-16T00:15:00.748Z,10.40
2022-09-16T00:17:32.556Z,8.87
2022-09-16T00:20:06.058Z,11.77
2022-09-16T00:22:37.882Z,12.60
2022-09-16T00:25:09.908Z,9.83
2022-09-16T00:27:41.673Z,9.10
2022-09-16T00:30:13.450Z,10.70
2022-09-16T00:32:45.276Z,10.77
2022-09-16T00:35:17.150Z,10.50
2022-09-16T00:37:48.830Z,9.13
2022-09-16T00:40:20.714Z,10.40
2022-09-16T00:42:52.442Z,10.37
2022-09-16T00:45:27.783Z,10.80
2022-09-16T00:48:08.062Z,8.80
2022-09-16T00:50:48.184Z,10.30
2022-09-16T00:53:33.051Z,9.87
2022-09-16T00:56:07.545Z,10.07
2022-09-16T00:58:47.341Z,10.33
2022-09-16T01:01:20.007Z,8.77
2022-09-16T01:03:59.721Z,10.23
2022-09-16T01:06:34.759Z,10.57
2022-09-16T01:09:06.625Z,9.27
2022-09-16T01:11:38.424Z,9.80
2022-09-16T01:14:28.754Z,8.30
2022-09-16T01:17:12.449Z,10.83
2022-09-16T01:20:11.932Z,14.47
2022-09-16T01:23:05.312Z,12.50
2022-09-16T01:25:58.587Z,10.33
2022-09-16T01:28:41.755Z,9.17
2022-09-16T01:31:42.200Z,8.30
2022-09-16T01:34:32.857Z,9.20
2022-09-16T01:37:21.384Z,8.70
2022-09-16T01:40:32.154Z,8.77
2022-09-16T01:43:21.051Z,10.73
2022-09-16T01:46:19.012Z,9.90
2022-09-16T01:49:02.571Z,9.60
2022-09-16T01:51:41.408Z,10.40
2022-09-16T01:54:23.362Z,10.10
2022-09-16T01:57:28.430Z,11.63
2022-09-16T02:00:08.701Z,11.53
2022-09-16T02:03:04.654Z,10.23
2022-09-16T02:06:01.644Z,10.50
2022-09-16T02:08:57.081Z,12.43
2022-09-16T02:11:29.347Z,9.03
2022-09-16T02:14:09.831Z,11.43
2022-09-16T02:16:47.063Z,9.70
2022-09-16T02:19:30.275Z,15.00
2022-09-16T02:22:07.351Z,11.10
2022-09-16T02:24:41.237Z,10.20
2022-09-16T02:27:20.124Z,10.40
2022-09-16T02:29:59.706Z,11.47
2022-09-16T02:32:35.042Z,11.80
2022-09-16T02:35:12.612Z,17.40
2022-09-16T02:37:49.762Z,11.27
2022-09-16T02:40:37.260Z,8.70
2022-09-16T02:43:09.315Z,9.00
2022-09-16T02:45:59.707Z,9.20
2022-09-16T02:48:49.924Z,12.27
2022-09-16T02:51:59.527Z,8.63
2022-09-16T02:54:52.209Z,9.90
2022-09-16T02:57:24.184Z,12.00
2022-09-16T02:59:56.843Z,8.73
2022-09-16T03:02:28.810Z,9.00
2022-09-16T03:05:01.015Z,10.10
2022-09-16T03:07:33.656Z,9.23
2022-09-16T03:10:05.844Z,9.33
2022-09-16T03:13:05.231Z,8.60
2022-09-16T03:15:55.109Z,8.80
2022-09-16T03:18:43.133Z,9.20
2022-09-16T03:21:25.902Z,9.70
2022-09-16T03:24:16.782Z,11.53
2022-09-16T03:27:08.046Z,9.13
2022-09-16T03:29:56.666Z,10.77
2022-09-16T03:32:34.419Z,9.43
2022-09-16T03:35:18.693Z,7.60
2022-09-16T03:37:53.563Z,11.60
2022-09-16T03:40:26.758Z,8.73
2022-09-16T03:42:58.894Z,9.03
2022-09-16T03:45:30.596Z,9.93
2022-09-16T03:48:02.383Z,9.00
2022-09-16T03:50:34.051Z,7.90
2022-09-16T03:53:05.902Z,11.13
2022-09-16T03:55:37.586Z,6.83
2022-09-16T03:58:09.475Z,8.70
2022-09-16T04:00:41.208Z,10.93
2022-09-16T04:03:12.862Z,8.83
2022-09-16T04:05:44.652Z,9.80
2022-09-16T04:08:16.328Z,7.87
2022-09-16T04:11:02.184Z,9.83
2022-09-16T04:13:35.186Z,8.03
2022-09-16T04:16:07.215Z,9.37
2022-09-16T04:18:39.094Z,8.03
2022-09-16T04:21:10.840Z,10.57
2022-09-16T04:23:42.568Z,10.83
2022-09-16T04:26:14.810Z,10.43
2022-09-16T04:28:47.923Z,9.53
2022-09-16T04:31:19.671Z,12.67
2022-09-16T04:33:51.382Z,9.77
2022-09-16T04:36:23.048Z,10.00
2022-09-16T04:38:54.838Z,11.40
2022-09-16T04:41:27.114Z,10.03
2022-09-16T04:44:00.659Z,10.40
2022-09-16T04:46:32.799Z,9.07
2022-09-16T04:49:04.855Z,9.13
2022-09-16T04:51:36.561Z,11.47
2022-09-16T04:54:08.451Z,12.27
2022-09-16T04:56:40.194Z,10.83
2022-09-16T04:59:11.870Z,10.60
2022-09-16T05:01:43.893Z,11.43
2022-09-16T05:04:15.959Z,10.20
2022-09-16T05:06:47.663Z,14.80
2022-09-16T05:09:22.493Z,11.80
2022-09-16T05:11:54.247Z,9.97
2022-09-16T05:14:25.996Z,10.80
2022-09-16T05:16:57.672Z,11.43
2022-09-16T05:19:29.536Z,10.10
2022-09-16T05:22:06.898Z,12.70
2022-09-16T05:24:38.625Z,12.70
2022-09-16T05:27:10.328Z,8.87
2022-09-16T05:29:41.979Z,8.53
2022-09-16T05:32:13.776Z,8.60
2022-09-16T05:34:45.434Z,9.57
2022-09-16T05:37:17.632Z,8.30
2022-09-16T05:39:49.388Z,7.27
2022-09-16T05:42:21.133Z,8.63
2022-09-16T05:44:53.023Z,7.83
2022-09-16T05:47:24.742Z,7.73
2022-09-16T05:49:56.391Z,7.23
2022-09-16T05:52:28.090Z,6.97
2022-09-16T05:54:59.767Z,7.13
2022-09-16T05:57:31.535Z,8.53
2022-09-16T06:00:05.259Z,8.77
2022-09-16T06:02:37.163Z,7.23
2022-09-16T06:05:09.535Z,7.73
2022-09-16T06:07:41.207Z,7.80
2022-09-16T06:10:12.871Z,17.53
2022-09-16T06:12:44.523Z,9.37
2022-09-16T06:15:16.304Z,7.70
2022-09-16T06:17:48.170Z,9.90
2022-09-16T06:20:20.548Z,7.20
2022-09-16T06:22:52.881Z,7.80
2022-09-16T06:25:24.627Z,6.50
2022-09-16T06:27:56.314Z,7.17
2022-09-16T06:30:31.013Z,7.37
2022-09-16T06:33:03.001Z,9.93
2022-09-16T06:35:35.499Z,6.83
2022-09-16T06:38:07.247Z,7.53
2022-09-16T06:40:39.123Z,6.10
2022-09-16T06:43:10.774Z,7.93
2022-09-16T06:45:42.598Z,9.07
2022-09-16T06:48:14.486Z,8.63
2022-09-16T06:50:46.454Z,6.90
2022-09-16T06:53:18.398Z,13.73
2022-09-16T06:55:50.051Z,7.73
2022-09-16T06:58:21.790Z,6.30
2022-09-16T07:00:53.447Z,7.47
2022-09-16T07:03:25.607Z,9.43
2022-09-16T07:06:01.843Z,7.13
2022-09-16T07:08:35.023Z,6.90
2022-09-16T07:11:08.452Z,6.73
2022-09-16T07:13:40.930Z,6.37
2022-09-16T07:16:14.997Z,11.83
2022-09-16T07:18:48.327Z,10.93
2022-09-16T07:21:22.243Z,8.00
2022-09-16T07:23:55.706Z,7.87
2022-09-16T07:26:30.173Z,8.17
2022-09-16T07:29:04.560Z,11.83
2022-09-16T07:31:37.607Z,7.00
2022-09-16T07:34:10.896Z,10.70
2022-09-16T07:36:46.646Z,9.43
2022-09-16T07:39:19.578Z,8.50
2022-09-16T07:41:51.486Z,9.60
2022-09-16T07:44:24.513Z,7.03
2022-09-16T07:46:56.222Z,8.07
2022-09-16T07:49:27.962Z,7.47
2022-09-16T07:52:00.301Z,6.53
2022-09-16T07:54:32.014Z,7.50
2022-09-16T07:57:03.834Z,7.97
2022-09-16T07:59:35.472Z,8.30
2022-09-16T08:02:07.243Z,8.53
2022-09-16T08:04:39.279Z,10.53
2022-09-16T08:07:11.516Z,10.53
2022-09-16T08:09:49.907Z,8.67
2022-09-16T08:12:22.587Z,7.93
2022-09-16T08:14:54.375Z,11.00
2022-09-16T08:17:28.656Z,7.77
2022-09-16T08:20:04.345Z,10.07
2022-09-16T08:22:36.068Z,8.10
2022-09-16T08:25:08.167Z,8.73
2022-09-16T08:27:39.860Z,7.30
2022-09-16T08:30:12.238Z,7.60
2022-09-16T08:32:43.884Z,7.13
2022-09-16T08:35:15.669Z,8.73
2022-09-16T08:37:50.171Z,7.67
2022-09-16T08:40:24.034Z,7.97
2022-09-16T08:43:01.741Z,7.53
2022-09-16T08:45:38.493Z,8.10
2022-09-16T08:48:22.238Z,6.60
2022-09-16T08:50:58.263Z,7.20
2022-09-16T08:53:39.539Z,7.50
2022-09-16T08:56:15.862Z,8.00
2022-09-16T08:58:51.124Z,9.20
2022-09-16T09:02:08.808Z,7.90
2022-09-16T09:04:41.059Z,7.20
2022-09-16T09:07:37.906Z,7.73
2022-09-16T09:10:31.557Z,7.97
2022-09-16T09:13:13.910Z,8.47
2022-09-16T09:15:54.000Z,8.63
2022-09-16T09:18:57.362Z,8.00
2022-09-16T09:21:41.822Z,7.10
2022-09-16T09:24:26.571Z,7.37
2022-09-16T09:27:04.679Z,9.57
2022-09-16T09:29:54.936Z,7.47
2022-09-16T09:32:46.034Z,7.43
2022-09-16T09:35:23.066Z,8.20
2022-09-16T09:38:22.770Z,7.20
2022-09-16T09:41:08.487Z,7.47
2022-09-16T09:44:21.956Z,7.23
2022-09-16T09:46:58.423Z,10.80
2022-09-16T09:49:35.974Z,14.37
2022-09-16T09:52:19.447Z,10.53
2022-09-16T09:54:52.544Z,10.30
2022-09-16T09:57:39.657Z,14.07
2022-09-16T10:00:21.050Z,10.20
2022-09-16T10:03:03.746Z,9.53
2022-09-16T10:05:35.504Z,8.83
2022-09-16T10:08:29.622Z,7.37
2022-09-16T10:11:03.604Z,6.73
2022-09-16T10:13:35.280Z,7.20
2022-09-16T10:16:13.165Z,6.83
2022-09-16T10:18:45.244Z,6.37
2022-09-16T10:21:17.745Z,6.83
2022-09-16T10:23:58.075Z,6.20
2022-09-16T10:26:30.112Z,6.70
2022-09-16T10:29:13.702Z,6.03
2022-09-16T10:31:45.889Z,5.77
2022-09-16T10:34:20.714Z,6.07
2022-09-16T10:37:01.336Z,6.40
2022-09-16T10:39:33.808Z,5.60
2022-09-16T10:42:15.843Z,6.20
2022-09-16T10:44:48.438Z,5.13
2022-09-16T10:47:32.885Z,9.50
2022-09-16T10:50:06.575Z,8.73
2022-09-16T10:52:43.737Z,6.00
2022-09-16T10:55:25.926Z,5.73
2022-09-16T10:58:16.563Z,5.23
2022-09-16T11:00:57.010Z,5.20
2022-09-16T11:04:15.384Z,5.67
2022-09-16T11:06:56.242Z,7.43
2022-09-16T11:09:47.176Z,9.10
2022-09-16T11:12:56.119Z,5.23
2022-09-16T11:15:52.741Z,5.53
2022-09-16T11:18:33.323Z,5.90
2022-09-16T11:21:55.775Z,4.20
2022-09-16T11:24:45.049Z,5.70
2022-09-16T11:27:45.689Z,4.20
2022-09-16T11:30:25.391Z,4.47
2022-09-16T11:36:06.028Z,5.37
2022-09-16T11:38:55.768Z,4.67
2022-09-16T11:41:33.658Z,5.13
2022-09-16T11:44:24.446Z,4.17
2022-09-16T11:47:21.968Z,3.43
2022-09-16T11:49:59.354Z,4.00
2022-09-16T11:53:07.221Z,3.30
2022-09-16T11:55:39.431Z,6.37
2022-09-16T11:58:31.979Z,3.40
2022-09-16T12:01:33.732Z,3.27
2022-09-16T12:04:11.281Z,4.80
2022-09-16T12:10:20.381Z,3.60
2022-09-16T12:13:15.480Z,3.10
2022-09-16T12:16:03.941Z,4.63
2022-09-16T12:18:42.927Z,4.07
2022-09-16T12:21:25.391Z,3.97
2022-09-16T12:24:28.668Z,4.20
2022-09-16T12:27:09.767Z,3.50
2022-09-16T12:29:56.609Z,9.13
2022-09-16T12:32:47.030Z,3.43
2022-09-16T12:35:28.875Z,3.17
2022-09-16T12:38:01.067Z,3.70
2022-09-16T12:40:52.769Z,4.10
2022-09-16T12:43:52.774Z,3.33
2022-09-16T12:46:54.638Z,4.30
2022-09-16T12:50:03.347Z,5.07
2022-09-16T12:53:08.603Z,3.90
2022-09-16T12:55:54.943Z,5.27
2022-09-16T12:58:48.062Z,4.70
2022-09-16T13:01:38.426Z,4.20
2022-09-16T13:04:17.581Z,4.73
2022-09-16T13:06:51.838Z,4.20
2022-09-16T13:09:33.863Z,3.30
2022-09-16T13:15:24.557Z,3.73
2022-09-16T13:18:07.552Z,3.57
2022-09-16T13:20:58.161Z,4.27
2022-09-16T13:23:34.046Z,3.67
2022-09-16T13:26:08.110Z,3.57
2022-09-16T13:28:45.020Z,3.70
2022-09-16T13:31:19.996Z,3.50
2022-09-16T13:33:57.639Z,3.70
2022-09-16T13:36:32.587Z,4.67
2022-09-16T13:39:07.062Z,3.93
2022-09-16T13:41:48.158Z,3.80
2022-09-16T13:44:41.157Z,3.00
2022-09-16T13:47:13.818Z,3.63
2022-09-16T13:49:51.515Z,3.47
2022-09-16T13:52:34.447Z,3.50
2022-09-16T13:55:19.461Z,9.30
2022-09-16T13:58:00.225Z,3.60
2022-09-16T14:01:06.562Z,4.30
2022-09-16T14:03:41.375Z,3.37
2022-09-16T14:06:28.036Z,4.03
2022-09-16T14:09:37.100Z,3.17
2022-09-16T14:12:26.819Z,4.13
2022-09-16T14:15:00.238Z,5.40
2022-09-16T14:17:59.481Z,3.60
2022-09-16T14:20:33.058Z,3.63
2022-09-16T14:23:16.664Z,4.80
2022-09-16T14:25:50.135Z,3.20
2022-09-16T14:28:27.947Z,3.23
2022-09-16T14:31:01.938Z,3.77
2022-09-16T14:33:46.891Z,6.10
2022-09-16T14:36:24.087Z,4.43
2022-09-16T14:39:02.396Z,3.67
2022-09-16T14:41:49.972Z,3.30
2022-09-16T14:44:50.952Z,6.50
2022-09-16T14:47:47.304Z,2.90
2022-09-16T14:50:37.372Z,5.60
2022-09-16T14:53:35.304Z,3.57
2022-09-16T14:56:18.853Z,3.70
2022-09-16T14:58:52.962Z,3.47
2022-09-16T15:01:28.165Z,3.73
2022-09-16T15:04:31.674Z,13.50
2022-09-16T15:07:12.615Z,7.03
2022-09-16T15:09:49.416Z,4.83
2022-09-16T15:12:37.518Z,3.37
2022-09-16T15:15:24.943Z,4.20
2022-09-16T15:18:03.178Z,3.10
2022-09-16T15:20:41.846Z,3.10
2022-09-16T15:23:24.343Z,4.50
2022-09-16T15:25:59.571Z,3.40
2022-09-16T15:28:31.358Z,3.67
2022-09-16T15:31:03.859Z,5.87
2022-09-16T15:33:42.091Z,7.13
2022-09-16T15:36:34.068Z,2.50
2022-09-16T15:39:20.667Z,3.10
2022-09-16T15:42:12.382Z,3.40
2022-09-16T15:44:52.725Z,4.20
2022-09-16T15:47:34.384Z,3.07
2022-09-16T15:50:08.573Z,3.67
2022-09-16T15:53:10.325Z,7.20
2022-09-16T15:55:57.791Z,5.17
2022-09-16T15:58:32.670Z,5.10
2022-09-16T16:01:13.288Z,6.33
2022-09-16T16:03:44.958Z,6.03
2022-09-16T16:06:16.679Z,5.00
2022-09-16T16:08:50.782Z,4.27
2022-09-16T16:11:23.482Z,2.93
2022-09-16T16:14:01.142Z,3.40
2022-09-16T16:16:41.973Z,6.80
2022-09-16T16:19:21.619Z,3.70
2022-09-16T16:21:53.872Z,3.43
2022-09-16T16:24:26.423Z,3.67
2022-09-16T16:26:58.178Z,3.50
2022-09-16T16:29:30.246Z,4.40
2022-09-16T16:32:02.196Z,8.73
2022-09-16T16:34:39.525Z,3.63
2022-09-16T16:37:40.256Z,5.33
2022-09-16T16:40:09.706Z,4.20
2022-09-16T16:42:43.547Z,3.37
2022-09-16T16:45:15.995Z,4.10
2022-09-16T16:47:47.807Z,4.90
2022-09-16T16:50:19.534Z,3.77
2022-09-16T16:52:53.105Z,3.97
2022-09-16T16:59:18.178Z,3.93
2022-09-16T17:01:54.894Z,3.00
2022-09-16T17:04:26.823Z,3.60
2022-09-16T17:07:24.074Z,7.77
2022-09-16T17:09:50.187Z,3.03
2022-09-16T17:12:21.902Z,3.03
2022-09-16T17:14:53.675Z,3.63
2022-09-16T17:17:29.057Z,6.90
2022-09-16T17:20:03.678Z,13.73
2022-09-16T17:22:35.381Z,4.00
2022-09-16T17:25:07.384Z,6.87
2022-09-16T17:27:39.118Z,3.40
2022-09-16T17:30:11.329Z,3.20
2022-09-16T17:32:43.048Z,6.57
2022-09-16T17:35:14.717Z,5.10
2022-09-16T17:37:46.375Z,5.33
2022-09-16T17:40:18.101Z,8.47
2022-09-16T17:42:53.034Z,5.10
2022-09-16T17:45:24.719Z,3.50
2022-09-16T17:47:58.327Z,3.90
2022-09-16T17:50:30.075Z,2.70
2022-09-16T17:53:01.912Z,3.70
2022-09-16T17:55:33.599Z,5.70
2022-09-16T17:58:05.305Z,6.13
2022-09-16T18:00:37.887Z,4.43
2022-09-16T18:03:11.359Z,5.73
2022-09-16T18:05:43.555Z,4.07
2022-09-16T18:08:15.264Z,2.30
2022-09-16T18:10:52.764Z,3.00
2022-09-16T18:13:24.431Z,2.33
2022-09-16T18:15:56.380Z,2.60
2022-09-16T18:18:28.116Z,2.53
2022-09-16T18:21:00.004Z,3.00
2022-09-16T18:23:32.147Z,2.50
2022-09-16T18:26:09.445Z,2.80
2022-09-16T18:29:08.588Z,2.00
2022-09-16T18:31:40.992Z,2.90
2022-09-16T18:34:13.838Z,7.40
2022-09-16T18:36:45.644Z,2.50
2022-09-16T18:39:17.549Z,3.87
2022-09-16T18:41:49.206Z,3.23
2022-09-16T18:44:25.783Z,2.90
2022-09-16T18:46:57.584Z,3.43
2022-09-16T18:49:30.133Z,3.33
2022-09-16T18:52:01.998Z,2.63
2022-09-16T18:54:33.707Z,3.57
2022-09-16T18:57:05.668Z,3.93
2022-09-16T18:59:37.399Z,3.50
2022-09-16T19:02:10.712Z,2.93
2022-09-16T19:04:43.602Z,3.30
2022-09-16T19:07:17.287Z,3.70
2022-09-16T19:09:49.507Z,3.00
2022-09-16T19:12:21.295Z,3.93
2022-09-16T19:14:55.577Z,3.20
2022-09-16T19:17:27.841Z,2.80
2022-09-16T19:20:00.534Z,3.77
2022-09-16T19:22:32.262Z,3.03
2022-09-16T19:25:04.248Z,6.00
2022-09-16T19:27:38.505Z,2.27
2022-09-16T19:30:10.577Z,3.73
2022-09-16T19:32:43.279Z,3.23
2022-09-16T19:35:15.647Z,4.30
2022-09-16T19:37:47.418Z,2.50
2022-09-16T19:40:19.175Z,4.33
2022-09-16T19:42:51.044Z,2.67
2022-09-16T19:45:27.700Z,5.60
2022-09-16T19:47:59.915Z,2.40
2022-09-16T19:50:31.694Z,2.60
2022-09-16T19:53:03.455Z,2.17
2022-09-16T19:55:35.132Z,2.30
2022-09-16T19:58:08.174Z,2.83
2022-09-16T20:00:55.381Z,3.00
2022-09-16T20:03:29.863Z,2.57
2022-09-16T20:06:07.615Z,2.00
2022-09-16T20:08:41.350Z,2.00
2022-09-16T20:11:16.972Z,2.10
2022-09-16T20:13:50.199Z,2.50
2022-09-16T20:16:25.684Z,3.53
2022-09-16T20:18:57.726Z,2.30
2022-09-16T20:21:29.971Z,2.43
2022-09-16T20:24:03.320Z,2.03
2022-09-16T20:26:35.735Z,2.73
2022-09-16T20:29:07.531Z,2.90
2022-09-16T20:31:39.291Z,2.30
2022-09-16T20:34:16.102Z,1.70
2022-09-16T20:36:47.898Z,1.77
2022-09-16T20:39:19.662Z,2.60
2022-09-16T20:41:52.653Z,1.60
2022-09-16T20:44:24.626Z,1.70
2022-09-16T20:46:56.324Z,3.87
2022-09-16T20:49:28.438Z,2.70
2022-09-16T20:52:00.114Z,1.83
2022-09-16T20:54:31.771Z,3.73
2022-09-16T20:57:05.070Z,2.13
2022-09-16T20:59:36.848Z,1.53
2022-09-16T21:02:09.282Z,1.77
2022-09-16T21:04:40.959Z,1.53
2022-09-16T21:07:12.694Z,1.97
2022-09-16T21:09:44.499Z,2.93
2022-09-16T21:12:16.566Z,1.90
2022-09-16T21:14:48.544Z,2.20
2022-09-16T21:17:22.543Z,1.80
2022-09-16T21:19:54.336Z,6.67
2022-09-16T21:22:26.027Z,1.70
2022-09-16T21:24:58.174Z,3.37
2022-09-16T21:27:32.203Z,1.67
2022-09-16T21:30:04.268Z,4.60
2022-09-16T21:32:35.947Z,1.73
2022-09-16T21:35:07.923Z,1.33
2022-09-16T21:37:39.661Z,1.73
2022-09-16T21:40:12.358Z,1.60
2022-09-16T21:42:45.303Z,2.10
2022-09-16T21:45:17.022Z,1.77
2022-09-16T21:47:53.047Z,3.83
2022-09-16T21:50:24.696Z,1.60
2022-09-16T21:52:56.447Z,1.60
2022-09-16T21:55:29.732Z,1.83
2022-09-16T21:58:01.394Z,1.50
2022-09-16T22:00:33.675Z,1.77
2022-09-16T22:03:06.451Z,2.80
2022-09-16T22:05:38.193Z,1.87
2022-09-16T22:08:09.863Z,2.23
2022-09-16T22:10:41.545Z,1.87
2022-09-16T22:13:13.293Z,4.10
2022-09-16T22:15:51.631Z,1.70
2022-09-16T22:18:23.658Z,2.00
2022-09-16T22:20:58.632Z,1.60
2022-09-16T22:23:30.443Z,1.97
2022-09-16T22:26:10.415Z,2.40
2022-09-16T22:28:42.768Z,1.83
2022-09-16T22:31:20.678Z,2.27
2022-09-16T22:33:54.803Z,1.50
2022-09-16T22:36:29.993Z,3.10
2022-09-16T22:39:05.628Z,1.83
2022-09-16T22:41:37.344Z,2.30
2022-09-16T22:44:09.652Z,1.77
2022-09-16T22:46:44.540Z,1.50
2022-09-16T22:49:16.805Z,1.58
2022-09-16T22:51:48.752Z,1.80
2022-09-16T22:54:20.406Z,3.37
2022-09-16T22:56:52.073Z,2.03
2022-09-16T22:59:23.734Z,1.47
2022-09-16T23:01:55.494Z,1.73
2022-09-16T23:04:27.398Z,1.60
2022-09-16T23:06:59.852Z,1.40
2022-09-16T23:09:31.799Z,1.93
2022-09-16T23:12:04.843Z,1.87
2022-09-16T23:14:37.012Z,1.83
2022-09-16T23:17:08.736Z,1.67
2022-09-16T23:19:40.541Z,1.40
2022-09-16T23:22:12.196Z,2.40
2022-09-16T23:24:44.232Z,1.80
2022-09-16T23:27:15.990Z,1.50
2022-09-16T23:29:47.656Z,2.10
2022-09-16T23:32:19.388Z,1.80
2022-09-16T23:34:51.054Z,1.43
2022-09-16T23:37:22.710Z,1.70
2022-09-16T23:39:54.416Z,1.93
2022-09-16T23:42:26.967Z,2.00
2022-09-16T23:44:58.728Z,2.43
2022-09-16T23:47:30.423Z,2.30
2022-09-16T23:50:02.079Z,1.60
2022-09-16T23:52:33.839Z,1.93
2022-09-16T23:55:06.538Z,2.10
2022-09-16T23:57:38.240Z,1.93
